Time;durP1;ratioP1;P1;durP2;ratioP2;P2;SDS_P1;SDS_P2;PMS_P1;PMS_P2;Temp;Humidity;BMP_temperature;BMP_pressure;BME280_temperature;BME280_humidity;BME280_pressure;Samples;Min_cycle;Max_cycle;Signal;HPM_P1;HPM_P2
2022/01/25 10:20:56;;;;;;;4.15;1.60;;;;;;;;;;7275729;19;20010;-85
2022/01/25 10:23:30;;;;;;;4.20;1.65;;;;;;;;;;7349700;19;20017;-85
2022/01/25 10:25:55;;;;;;;;;;;;;;;;;;7369386;19;20327;-86
2022/01/25 10:28:27;;;;;;;5.25;1.65;;;;;;;;;;7357253;19;19926;-85
2022/01/25 10:30:55;;;;;;;3.42;1.45;;;;;;;;;;7373618;19;20079;-87
2022/01/25 10:33:31;;;;;;;4.95;1.45;;;;;;;;;;7372774;19;20033;-86
2022/01/25 10:35:59;;;;;;;4.25;1.70;;;;;;;;;;7349188;19;20071;-86
2022/01/25 10:38:33;;;;;;;4.38;1.67;;;;;;;;;;7367448;19;20516;-84
2022/01/25 10:41:02;;;;;;;4.15;1.45;;;;;;;;;;7372463;19;20108;-85
2022/01/25 10:43:29;;;;;;;5.80;1.83;;;;;;;;;;7375433;19;20045;-85
2022/01/25 10:46:03;;;;;;;3.92;1.40;;;;;;;;;;7369547;19;21080;-85
2022/01/25 10:48:29;;;;;;;3.97;1.40;;;;;;;;;;7373155;19;20097;-83
2022/01/25 10:51:03;;;;;;;4.18;1.45;;;;;;;;;;7358988;19;20007;-84
2022/01/25 10:53:29;;;;;;;3.97;1.52;;;;;;;;;;7362208;19;20063;-82
2022/01/25 10:55:57;;;;;;;5.88;1.60;;;;;;;;;;7372993;19;20086;-83
2022/01/25 10:58:23;;;;;;;4.55;1.38;;;;;;;;;;7372334;19;20003;-84
2022/01/25 11:00:51;;;;;;;4.05;1.55;;;;;;;;;;7373431;19;20085;-82
2022/01/25 11:03:30;;;;;;;3.97;1.45;;;;;;;;;;7353429;19;20138;-83
2022/01/25 11:05:56;;;;;;;4.65;1.85;;;;;;;;;;7359878;19;20038;-86
2022/01/25 11:08:27;;;;;;;4.32;1.50;;;;;;;;;;7364238;19;20027;-83
2022/01/25 11:11:00;;;;;;;4.53;1.60;;;;;;;;;;7373158;19;20096;-86
2022/01/25 11:15:55;;;;;;;4.03;1.63;;;;;;;;;;7346787;19;20021;-87
2022/01/25 11:18:20;;;;;;;4.05;1.63;;;;;;;;;;7366776;19;20015;-87
2022/01/25 11:20:46;;;;;;;8.93;2.58;;;;;;;;;;7360333;19;20030;-87
2022/01/25 11:23:12;;;;;;;4.10;1.30;;;;;;;;;;7327210;19;20111;-82
2022/01/25 11:25:40;;;;;;;5.72;1.73;;;;;;;;;;7327705;19;20026;-85
2022/01/25 11:28:05;;;;;;;4.47;1.50;;;;;;;;;;7346513;19;20043;-84
2022/01/25 11:30:31;;;;;;;6.03;1.60;;;;;;;;;;7337838;19;20389;-86
2022/01/25 11:32:56;;;;;;;5.38;1.45;;;;;;;;;;7348830;19;20006;-84
2022/01/25 11:35:25;;;;;;;5.63;1.77;;;;;;;;;;7343501;19;20006;-83
2022/01/25 11:37:51;;;;;;;4.07;1.50;;;;;;;;;;7334424;19;20017;-87
2022/01/25 11:40:26;;;;;;;7.32;1.80;;;;;;;;;;7345979;19;20010;-83
2022/01/25 11:42:54;;;;;;;4.43;1.33;;;;;;;;;;7363167;19;20011;-84
2022/01/25 11:45:22;;;;;;;3.70;1.45;;;;;;;;;;7369148;19;20455;-83
2022/01/25 11:47:48;;;;;;;5.55;1.77;;;;;;;;;;7345843;19;20026;-83
2022/01/25 11:50:14;;;;;;;5.85;1.70;;;;;;;;;;7325506;19;20033;-85
2022/01/25 11:52:48;;;;;;;9.40;2.50;;;;;;;;;;7344132;19;20022;-82
2022/01/25 11:55:31;;;;;;;6.63;1.55;;;;;;;;;;7369797;19;20018;-81
2022/01/25 11:58:04;;;;;;;10.68;2.00;;;;;;;;;;7362353;19;21104;-83
2022/01/25 12:01:03;;;;;;;6.85;1.73;;;;;;;;;;7351181;19;20021;-85
2022/01/25 12:03:50;;;;;;;12.43;2.67;;;;;;;;;;7335197;19;20022;-80
2022/01/25 12:06:25;;;;;;;14.63;2.50;;;;;;;;;;7335516;19;20038;-81
2022/01/25 12:11:58;;;;;;;12.90;2.85;;;;;;;;;;7364573;19;20028;-80
2022/01/25 12:14:42;;;;;;;11.07;2.60;;;;;;;;;;7369376;19;20487;-80
2022/01/25 12:17:16;;;;;;;15.07;2.67;;;;;;;;;;7365175;19;20174;-81
2022/01/25 12:20:03;;;;;;;21.35;2.40;;;;;;;;;;7372838;19;20036;-83
2022/01/25 12:25:12;;;;;;;8.20;2.00;;;;;;;;;;7357454;19;20032;-79
2022/01/25 12:27:45;;;;;;;8.27;2.00;;;;;;;;;;7374923;19;20378;-79
2022/01/25 12:30:26;;;;;;;10.38;2.30;;;;;;;;;;7370590;19;20067;-79
2022/01/25 12:33:03;;;;;;;8.27;2.90;;;;;;;;;;7365383;19;20185;-80
2022/01/25 12:35:47;;;;;;;7.95;1.65;;;;;;;;;;7371532;19;20027;-82
2022/01/25 12:38:15;;;;;;;;;;;;;;;;;;7361023;19;20082;-82
2022/01/25 12:41:15;;;;;;;8.05;2.45;;;;;;;;;;7375605;19;19919;-82
2022/01/25 12:43:44;;;;;;;9.02;2.30;;;;;;;;;;7366442;19;20281;-88
2022/01/25 12:46:30;;;;;;;8.43;2.63;;;;;;;;;;7358166;19;20014;-82
2022/01/25 12:49:00;;;;;;;8.10;2.17;;;;;;;;;;7369735;19;20017;-82
2022/01/25 12:51:31;;;;;;;7.38;2.25;;;;;;;;;;7372590;19;20038;-84
2022/01/25 12:53:58;;;;;;;12.13;2.33;;;;;;;;;;7355639;19;20018;-83
2022/01/25 12:56:27;;;;;;;11.85;2.92;;;;;;;;;;7371327;19;20011;-81
2022/01/25 12:58:59;;;;;;;8.82;2.45;;;;;;;;;;7363281;19;20018;-81
2022/01/25 13:01:26;;;;;;;14.77;3.30;;;;;;;;;;7368751;19;20134;-81
2022/01/25 13:04:03;;;;;;;9.07;2.88;;;;;;;;;;7360331;19;20324;-81
2022/01/25 13:06:37;;;;;;;9.65;3.45;;;;;;;;;;7361822;19;20112;-82
2022/01/25 13:12:10;;;;;;;10.90;3.25;;;;;;;;;;7370757;19;20016;-82
2022/01/25 13:17:16;;;;;;;8.77;3.15;;;;;;;;;;7344971;19;20194;-81
2022/01/25 13:20:04;;;;;;;8.35;2.92;;;;;;;;;;7361650;19;20018;-81
2022/01/25 13:22:36;;;;;;;10.52;2.85;;;;;;;;;;7357236;19;20406;-81
2022/01/25 13:27:35;;;;;;;9.73;3.40;;;;;;;;;;7361747;19;20006;-81
2022/01/25 13:32:51;;;;;;;7.38;2.92;;;;;;;;;;7368369;19;20039;-82
2022/01/25 13:35:28;;;;;;;8.85;2.80;;;;;;;;;;7368632;19;20046;-81
2022/01/25 13:38:33;;;;;;;8.48;3.05;;;;;;;;;;7342214;19;20015;-81
2022/01/25 13:46:31;;;;;;;7.32;3.08;;;;;;;;;;7379089;19;20108;-81
2022/01/25 13:48:59;;;;;;;10.13;2.97;;;;;;;;;;7369908;19;20446;-81
2022/01/25 13:51:29;;;;;;;6.57;2.85;;;;;;;;;;7378169;19;20021;-81
2022/01/25 13:53:57;;;;;;;7.40;3.00;;;;;;;;;;7354845;19;20014;-81
2022/01/25 13:56:25;;;;;;;11.15;3.40;;;;;;;;;;7377666;19;20010;-80
2022/01/25 13:58:51;;;;;;;7.22;3.83;;;;;;;;;;7370324;19;20077;-80
2022/01/25 14:01:21;;;;;;;6.78;2.90;;;;;;;;;;7369750;19;20118;-80
2022/01/25 14:04:16;;;;;;;12.15;3.75;;;;;;;;;;7376129;19;20018;-81
2022/01/25 14:06:44;;;;;;;15.80;7.32;;;;;;;;;;7366955;19;20036;-81
2022/01/25 14:09:12;;;;;;;16.58;8.32;;;;;;;;;;7369842;19;20018;-80
2022/01/25 14:11:55;;;;;;;20.00;8.57;;;;;;;;;;7376180;19;20143;-81
2022/01/25 14:25:40;;;;;;;11.82;4.03;;;;;;;;;;7379548;19;20501;-84
2022/01/25 14:28:09;;;;;;;8.02;3.13;;;;;;;;;;7371665;19;20027;-84
2022/01/25 14:30:37;;;;;;;10.00;3.58;;;;;;;;;;7373422;19;20027;-84
2022/01/25 14:33:11;;;;;;;8.20;3.15;;;;;;;;;;7360038;19;20014;-84
2022/01/25 14:35:54;;;;;;;9.93;3.25;;;;;;;;;;7372302;19;20039;-84
2022/01/25 14:38:31;;;;;;;7.65;2.72;;;;;;;;;;7353568;19;20048;-84
2022/01/25 14:41:16;;;;;;;11.07;2.70;;;;;;;;;;7372042;19;20440;-84
2022/01/25 14:43:52;;;;;;;9.18;2.63;;;;;;;;;;7374716;19;20029;-84
2022/01/25 14:46:22;;;;;;;7.53;3.20;;;;;;;;;;7375837;19;20081;-85
2022/01/25 14:49:00;;;;;;;6.05;2.85;;;;;;;;;;7357480;19;20604;-84
2022/01/25 14:51:49;;;;;;;12.80;3.53;;;;;;;;;;7375179;19;20006;-84
2022/01/25 14:54:22;;;;;;;8.63;4.00;;;;;;;;;;7362956;19;20126;-83
2022/01/25 14:56:52;;;;;;;8.93;3.63;;;;;;;;;;7367930;19;20027;-83
2022/01/25 14:59:28;;;;;;;11.27;4.35;;;;;;;;;;7369501;19;20103;-83
2022/01/25 15:02:11;;;;;;;11.38;5.90;;;;;;;;;;7366339;19;20097;-83
2022/01/25 15:04:38;;;;;;;15.18;8.07;;;;;;;;;;7373028;19;20103;-84
2022/01/25 15:07:05;;;;;;;17.17;7.95;;;;;;;;;;7364883;19;20035;-84
2022/01/25 15:09:31;;;;;;;15.57;6.70;;;;;;;;;;7364615;19;20554;-84
2022/01/25 15:11:56;;;;;;;14.18;5.40;;;;;;;;;;7352366;19;20031;-85
2022/01/25 15:14:23;;;;;;;11.52;5.07;;;;;;;;;;7366024;19;21516;-84
2022/01/25 15:16:49;;;;;;;11.75;4.93;;;;;;;;;;7364480;19;20371;-84
2022/01/25 15:19:19;;;;;;;11.05;4.88;;;;;;;;;;7316995;19;20554;-84
2022/01/25 15:21:53;;;;;;;9.85;4.90;;;;;;;;;;7348656;19;20009;-84
2022/01/25 15:24:20;;;;;;;8.10;4.15;;;;;;;;;;7372931;19;20038;-84
2022/01/25 15:26:52;;;;;;;14.13;4.82;;;;;;;;;;7371533;19;20006;-85
2022/01/25 15:29:22;;;;;;;12.25;4.07;;;;;;;;;;7372458;19;20014;-85
2022/01/25 15:31:49;;;;;;;10.82;3.58;;;;;;;;;;7367299;19;20026;-85
2022/01/25 15:34:14;;;;;;;9.90;3.78;;;;;;;;;;7360540;19;20100;-83
2022/01/25 15:36:40;;;;;;;9.88;3.58;;;;;;;;;;7366488;19;20026;-84
2022/01/25 15:39:05;;;;;;;8.90;3.53;;;;;;;;;;7368628;19;20006;-83
2022/01/25 15:41:34;;;;;;;11.18;3.67;;;;;;;;;;7373762;19;20035;-85
2022/01/25 15:43:59;;;;;;;11.07;3.25;;;;;;;;;;7373204;19;20082;-84
2022/01/25 15:46:55;;;;;;;11.35;3.47;;;;;;;;;;7362906;19;20018;-83
2022/01/25 15:49:18;;;;;;;12.40;3.70;;;;;;;;;;7374599;19;20101;-84
2022/01/25 15:51:45;;;;;;;11.00;3.85;;;;;;;;;;7356890;19;20599;-84
2022/01/25 15:54:10;;;;;;;8.55;3.22;;;;;;;;;;7374581;19;20033;-83
2022/01/25 15:56:36;;;;;;;12.27;3.42;;;;;;;;;;7372724;19;20768;-84
2022/01/25 15:59:02;;;;;;;10.50;2.92;;;;;;;;;;7371379;19;20014;-83
2022/01/25 16:01:27;;;;;;;9.60;3.17;;;;;;;;;;7353794;19;20454;-83
2022/01/25 16:03:52;;;;;;;11.70;2.75;;;;;;;;;;7375782;19;20677;-83
2022/01/25 16:06:19;;;;;;;9.35;3.10;;;;;;;;;;7366556;19;20019;-83
2022/01/25 16:08:44;;;;;;;7.38;2.88;;;;;;;;;;7356066;19;20016;-84
2022/01/25 16:11:14;;;;;;;7.15;3.00;;;;;;;;;;7374678;19;20014;-84
2022/01/25 16:13:41;;;;;;;11.20;3.40;;;;;;;;;;7372757;19;20632;-83
2022/01/25 16:16:08;;;;;;;6.32;3.03;;;;;;;;;;7362131;19;20014;-84
2022/01/25 16:18:33;;;;;;;8.52;3.08;;;;;;;;;;7370529;19;20456;-83
2022/01/25 16:20:58;;;;;;;9.23;3.47;;;;;;;;;;7372937;19;20447;-84
2022/01/25 16:23:25;;;;;;;7.35;3.10;;;;;;;;;;7349085;19;20107;-84
2022/01/25 16:25:50;;;;;;;10.95;2.70;;;;;;;;;;7374496;19;20006;-84
2022/01/25 16:28:16;;;;;;;7.78;2.67;;;;;;;;;;7374145;19;20022;-84
2022/01/25 16:30:41;;;;;;;8.13;2.80;;;;;;;;;;7361356;19;20003;-84
2022/01/25 16:33:06;;;;;;;5.35;2.33;;;;;;;;;;7373719;19;20122;-84
2022/01/25 16:35:32;;;;;;;6.63;2.70;;;;;;;;;;7371368;19;20045;-83
2022/01/25 16:37:57;;;;;;;6.47;2.83;;;;;;;;;;7362890;19;20118;-84
2022/01/25 16:42:54;;;;;;;6.63;2.53;;;;;;;;;;7369786;19;20022;-85
2022/01/25 16:45:20;;;;;;;9.07;2.65;;;;;;;;;;7371915;19;20082;-83
2022/01/25 16:47:47;;;;;;;4.43;1.90;;;;;;;;;;7372524;19;20007;-85
2022/01/25 16:50:14;;;;;;;6.55;2.30;;;;;;;;;;7358566;19;20015;-83
2022/01/25 16:52:40;;;;;;;5.65;2.03;;;;;;;;;;7363158;19;20031;-83
2022/01/25 16:55:08;;;;;;;6.00;2.50;;;;;;;;;;7357904;19;20096;-85
2022/01/25 16:57:34;;;;;;;6.40;2.85;;;;;;;;;;7370220;19;20645;-84
2022/01/25 16:59:59;;;;;;;5.32;2.20;;;;;;;;;;7368459;19;20187;-83
2022/01/25 17:02:25;;;;;;;4.85;2.20;;;;;;;;;;7365766;19;20023;-83
2022/01/25 17:04:50;;;;;;;6.25;2.17;;;;;;;;;;7373859;19;20022;-84
2022/01/25 17:07:16;;;;;;;5.82;2.03;;;;;;;;;;7337436;19;20481;-83
2022/01/25 17:09:41;;;;;;;5.47;2.33;;;;;;;;;;7372795;19;20435;-83
2022/01/25 17:12:08;;;;;;;5.50;2.30;;;;;;;;;;7370801;19;20089;-84
2022/01/25 17:14:34;;;;;;;6.50;2.65;;;;;;;;;;7371238;19;20465;-83
2022/01/25 17:16:59;;;;;;;5.28;2.38;;;;;;;;;;7364337;19;20006;-83
2022/01/25 17:19:27;;;;;;;5.55;2.50;;;;;;;;;;7368278;19;20032;-84
2022/01/25 17:21:55;;;;;;;5.13;1.75;;;;;;;;;;7355756;19;20032;-83
2022/01/25 17:24:21;;;;;;;6.00;2.20;;;;;;;;;;7353135;19;20017;-83
2022/01/25 17:26:46;;;;;;;5.85;2.05;;;;;;;;;;7362053;19;20006;-84
2022/01/25 17:29:11;;;;;;;6.00;1.95;;;;;;;;;;7359838;19;20369;-84
2022/01/25 17:31:37;;;;;;;5.55;2.03;;;;;;;;;;7373277;19;20545;-84
2022/01/25 17:34:03;;;;;;;6.10;3.28;;;;;;;;;;7358936;19;20019;-84
2022/01/25 17:36:29;;;;;;;7.18;2.58;;;;;;;;;;7367422;19;20086;-84
2022/01/25 17:38:54;;;;;;;6.60;2.17;;;;;;;;;;7357019;19;20777;-84
2022/01/25 17:41:19;;;;;;;5.95;2.03;;;;;;;;;;7371036;19;20011;-84
2022/01/25 17:43:45;;;;;;;5.50;1.90;;;;;;;;;;7366885;19;20415;-84
2022/01/25 17:46:12;;;;;;;4.72;2.10;;;;;;;;;;7345151;19;20006;-84
2022/01/25 17:48:37;;;;;;;6.50;1.98;;;;;;;;;;7337947;19;20003;-83
2022/01/25 17:51:03;;;;;;;4.70;2.05;;;;;;;;;;7320067;19;20877;-85
2022/01/25 17:53:28;;;;;;;5.05;1.90;;;;;;;;;;7332883;19;20022;-84
2022/01/25 17:55:53;;;;;;;4.75;1.98;;;;;;;;;;7365899;19;19998;-80
2022/01/25 17:58:19;;;;;;;5.05;2.13;;;;;;;;;;7358104;19;20007;-83
2022/01/25 18:00:45;;;;;;;6.47;2.25;;;;;;;;;;7346156;19;20861;-84
2022/01/25 18:03:10;;;;;;;5.70;1.90;;;;;;;;;;7367912;19;20006;-83
2022/01/25 18:05:36;;;;;;;6.80;2.00;;;;;;;;;;7352706;19;20358;-82
2022/01/25 18:08:02;;;;;;;5.47;1.80;;;;;;;;;;7350571;19;20027;-83
2022/01/25 18:10:27;;;;;;;4.13;1.67;;;;;;;;;;7354619;19;20115;-86
2022/01/25 18:12:53;;;;;;;5.30;2.17;;;;;;;;;;7339961;19;20014;-83
2022/01/25 18:15:19;;;;;;;5.18;1.80;;;;;;;;;;7361959;19;20050;-85
2022/01/25 18:17:45;;;;;;;6.40;2.13;;;;;;;;;;7345483;19;20085;-85
2022/01/25 18:20:11;;;;;;;4.97;1.70;;;;;;;;;;7345827;19;20702;-83
2022/01/25 18:25:37;;;;;;;5.70;1.63;;;;;;;;;;7355384;19;20030;-83
2022/01/25 18:27:58;;;;;;;7.45;2.05;;;;;;;;;;7341963;19;20010;-85
2022/01/25 18:30:23;;;;;;;5.20;2.00;;;;;;;;;;7361958;19;20046;-87
2022/01/25 18:32:49;;;;;;;4.82;1.85;;;;;;;;;;7361639;19;20018;-83
2022/01/25 18:35:14;;;;;;;5.25;1.98;;;;;;;;;;7367235;19;21188;-83
2022/01/25 18:37:39;;;;;;;4.70;1.90;;;;;;;;;;7352360;19;20438;-83
2022/01/25 18:42:37;;;;;;;6.30;1.88;;;;;;;;;;7356551;19;20450;-83
2022/01/25 18:45:04;;;;;;;5.07;1.73;;;;;;;;;;7373522;19;20014;-84
2022/01/25 18:47:29;;;;;;;4.50;1.70;;;;;;;;;;7363519;19;20018;-83
2022/01/25 18:49:54;;;;;;;6.60;1.92;;;;;;;;;;7361305;19;20010;-86
2022/01/25 18:52:20;;;;;;;4.50;2.00;;;;;;;;;;7362210;19;20721;-84
2022/01/25 18:54:45;;;;;;;7.00;2.03;;;;;;;;;;7370530;19;20075;-84
2022/01/25 18:57:11;;;;;;;4.68;1.88;;;;;;;;;;7365572;19;20017;-83
2022/01/25 18:59:36;;;;;;;4.00;1.65;;;;;;;;;;7367008;19;20076;-85
2022/01/25 19:02:11;;;;;;;5.95;2.20;;;;;;;;;;7354969;19;20010;-84
2022/01/25 19:04:38;;;;;;;4.00;1.60;;;;;;;;;;7365147;19;20081;-82
2022/01/25 19:07:03;;;;;;;5.85;1.90;;;;;;;;;;7352926;19;20003;-83
2022/01/25 19:09:29;;;;;;;4.60;1.73;;;;;;;;;;7350623;19;20010;-86
2022/01/25 19:11:54;;;;;;;4.75;1.80;;;;;;;;;;7368112;19;20010;-83
2022/01/25 19:14:19;;;;;;;9.82;4.60;;;;;;;;;;7356848;19;20068;-84
2022/01/25 19:16:46;;;;;;;11.77;7.60;;;;;;;;;;7354086;19;20022;-83
2022/01/25 19:19:11;;;;;;;12.23;6.47;;;;;;;;;;7367639;19;20114;-85
2022/01/25 19:21:37;;;;;;;9.98;5.85;;;;;;;;;;7360733;19;20570;-85
2022/01/25 19:24:02;;;;;;;10.07;4.40;;;;;;;;;;7356404;19;20099;-83
2022/01/25 19:26:28;;;;;;;7.40;3.50;;;;;;;;;;7357136;19;20045;-82
2022/01/25 19:28:53;;;;;;;5.53;2.92;;;;;;;;;;7359789;19;20002;-83
2022/01/25 19:31:19;;;;;;;6.50;3.00;;;;;;;;;;7337440;19;20101;-86
2022/01/25 19:33:46;;;;;;;5.78;2.75;;;;;;;;;;7341687;19;19998;-83
2022/01/25 19:36:13;;;;;;;5.35;2.55;;;;;;;;;;7347689;19;20025;-87
2022/01/25 19:38:39;;;;;;;5.85;2.33;;;;;;;;;;7326668;19;20438;-85
2022/01/25 19:41:07;;;;;;;5.68;2.58;;;;;;;;;;7352276;19;20011;-86
2022/01/25 19:43:33;;;;;;;7.93;2.75;;;;;;;;;;7335650;19;20010;-84
2022/01/25 19:45:58;;;;;;;9.90;3.10;;;;;;;;;;7370366;19;20013;-84
2022/01/25 19:48:23;;;;;;;7.88;2.70;;;;;;;;;;7365874;19;20057;-83
2022/01/25 19:50:49;;;;;;;7.55;2.45;;;;;;;;;;7354798;19;20070;-85
2022/01/25 19:53:18;;;;;;;7.63;2.50;;;;;;;;;;7263694;19;21236;-58
2022/01/25 19:55:46;;;;;;;5.53;2.30;;;;;;;;;;7344045;19;20485;-57
2022/01/25 19:58:12;;;;;;;7.97;2.65;;;;;;;;;;7334663;19;20018;-53
2022/01/25 20:00:40;;;;;;;8.77;2.42;;;;;;;;;;7362320;19;20818;-57
2022/01/25 20:03:05;;;;;;;7.53;2.80;;;;;;;;;;7365555;19;20614;-56
2022/01/25 20:05:31;;;;;;;8.43;2.50;;;;;;;;;;7356637;19;20453;-58
2022/01/25 20:07:56;;;;;;;6.85;2.50;;;;;;;;;;7365947;19;20043;-54
2022/01/25 20:12:54;;;;;;;7.78;2.25;;;;;;;;;;7380426;19;20779;-52
2022/01/25 20:15:19;;;;;;;5.78;2.35;;;;;;;;;;7382440;19;20015;-56
2022/01/25 20:17:45;;;;;;;6.18;2.50;;;;;;;;;;7369810;19;20011;-58
2022/01/25 20:20:24;;;;;;;5.68;2.20;;;;;;;;;;7376221;19;20003;-55
2022/01/25 20:22:57;;;;;;;6.07;2.42;;;;;;;;;;7371422;19;20010;-57
2022/01/25 20:28:06;;;;;;;6.70;1.98;;;;;;;;;;7370474;19;20010;-55
2022/01/25 20:30:38;;;;;;;5.32;2.13;;;;;;;;;;7374981;19;20018;-55
2022/01/25 20:33:04;;;;;;;6.88;1.80;;;;;;;;;;7376641;19;20374;-56
2022/01/25 20:35:30;;;;;;;7.55;2.60;;;;;;;;;;7333659;19;20018;-52
2022/01/25 20:37:55;;;;;;;7.10;2.28;;;;;;;;;;7372417;19;20420;-57
2022/01/25 20:42:52;;;;;;;5.50;1.92;;;;;;;;;;7368871;19;20022;-56
2022/01/25 20:45:18;;;;;;;4.57;1.90;;;;;;;;;;7370326;19;20006;-56
2022/01/25 20:47:44;;;;;;;7.50;2.25;;;;;;;;;;7375231;19;20022;-52
2022/01/25 20:50:09;;;;;;;7.00;2.10;;;;;;;;;;7377388;19;20506;-50
2022/01/25 20:52:35;;;;;;;10.05;2.60;;;;;;;;;;7372748;19;20010;-51
2022/01/25 20:55:01;;;;;;;4.68;2.25;;;;;;;;;;7377108;19;20006;-56
2022/01/25 20:57:26;;;;;;;7.63;2.22;;;;;;;;;;7351204;19;20086;-58
2022/01/25 20:59:52;;;;;;;7.72;2.40;;;;;;;;;;7364966;19;20010;-56
2022/01/25 21:02:25;;;;;;;5.38;2.10;;;;;;;;;;7372011;19;20010;-55
2022/01/25 21:07:35;;;;;;;7.30;2.13;;;;;;;;;;7373981;19;20444;-51
2022/01/25 21:10:16;;;;;;;6.18;1.80;;;;;;;;;;7379839;19;20010;-54
2022/01/25 21:12:41;;;;;;;4.57;2.00;;;;;;;;;;7376203;19;20033;-52
